< < Back
Terminal Aerodrome Forecast


Current Version              Previous Versions:   1  2  3  4  5  6  7  8  9  

Terminal Aerodrome Forecast

799
FTUS44 KMRX 211125
TAFTYS
TAF
KTYS 211125Z 2112/2212 04003KT 6SM BR VCSH SCT003 BKN040 BKN080
     FM211330 04004KT P6SM VCSH SCT025 BKN040
     FM211900 05006KT P6SM VCTS SCT040CB BKN100
     FM220100 VRB03KT P6SM FEW050 BKN100
     FM220700 03003KT 5SM BR BKN100=

Latest METAR

980
SAUS80 KWBC 221300 RRA
MTRTYS
METAR KTYS 221253Z 09003KT 10SM FEW008 SCT045 SCT180 BKN250 24/22 A3016
RMK AO2 SLP203 T02440217


USA.gov is the U.S. government's official web portal to all federal, state and local government web resources and services.